sensor_id;sensor_type;location;lat;lon;timestamp;P1;durP1;ratioP1;P2;durP2;ratioP2
51260;SDS011;61705;46.228;24.812;2023-03-01T00:01:38;80.45;;;30.48;;
51260;SDS011;61705;46.228;24.812;2023-03-01T00:04:05;90.53;;;32.17;;
51260;SDS011;61705;46.228;24.812;2023-03-01T00:06:32;120.28;;;32.97;;
51260;SDS011;61705;46.228;24.812;2023-03-01T00:08:59;90.70;;;30.50;;
51260;SDS011;61705;46.228;24.812;2023-03-01T00:11:27;88.38;;;29.65;;
51260;SDS011;61705;46.228;24.812;2023-03-01T00:13:56;112.32;;;30.13;;
51260;SDS011;61705;46.228;24.812;2023-03-01T00:16:26;90.85;;;27.95;;
51260;SDS011;61705;46.228;24.812;2023-03-01T00:18:58;114.05;;;29.35;;
51260;SDS011;61705;46.228;24.812;2023-03-01T00:21:34;79.90;;;27.23;;
51260;SDS011;61705;46.228;24.812;2023-03-01T00:24:01;106.40;;;28.02;;
51260;SDS011;61705;46.228;24.812;2023-03-01T00:26:28;85.43;;;25.83;;
51260;SDS011;61705;46.228;24.812;2023-03-01T00:28:57;86.60;;;27.48;;
51260;SDS011;61705;46.228;24.812;2023-03-01T00:31:26;83.68;;;27.05;;
51260;SDS011;61705;46.228;24.812;2023-03-01T00:33:55;78.60;;;24.58;;
51260;SDS011;61705;46.228;24.812;2023-03-01T00:36:28;85.88;;;25.23;;
51260;SDS011;61705;46.228;24.812;2023-03-01T00:38:58;82.03;;;27.63;;
51260;SDS011;61705;46.228;24.812;2023-03-01T00:41:28;80.80;;;24.05;;
51260;SDS011;61705;46.228;24.812;2023-03-01T00:43:54;79.47;;;25.73;;
51260;SDS011;61705;46.228;24.812;2023-03-01T00:46:24;77.07;;;24.05;;
51260;SDS011;61705;46.228;24.812;2023-03-01T00:48:53;79.40;;;25.33;;
51260;SDS011;61705;46.228;24.812;2023-03-01T00:51:21;116.07;;;27.42;;
51260;SDS011;61705;46.228;24.812;2023-03-01T00:53:53;88.78;;;25.00;;
51260;SDS011;61705;46.228;24.812;2023-03-01T00:56:22;81.65;;;26.25;;
51260;SDS011;61705;46.228;24.812;2023-03-01T00:58:55;83.05;;;23.98;;
51260;SDS011;61705;46.228;24.812;2023-03-01T01:01:28;72.55;;;25.58;;
51260;SDS011;61705;46.228;24.812;2023-03-01T01:03:58;77.72;;;25.65;;
51260;SDS011;61705;46.228;24.812;2023-03-01T01:06:34;78.18;;;24.30;;
51260;SDS011;61705;46.228;24.812;2023-03-01T01:09:05;89.03;;;23.98;;
51260;SDS011;61705;46.228;24.812;2023-03-01T01:11:33;84.78;;;24.75;;
51260;SDS011;61705;46.228;24.812;2023-03-01T01:14:01;62.50;;;23.67;;
51260;SDS011;61705;46.228;24.812;2023-03-01T01:16:29;77.88;;;26.17;;
51260;SDS011;61705;46.228;24.812;2023-03-01T01:18:56;81.65;;;24.38;;
51260;SDS011;61705;46.228;24.812;2023-03-01T01:21:24;65.05;;;23.45;;
51260;SDS011;61705;46.228;24.812;2023-03-01T01:23:52;82.68;;;25.02;;
51260;SDS011;61705;46.228;24.812;2023-03-01T01:26:20;95.90;;;28.05;;
51260;SDS011;61705;46.228;24.812;2023-03-01T01:28:47;79.60;;;27.52;;
51260;SDS011;61705;46.228;24.812;2023-03-01T01:31:14;87.70;;;27.88;;
51260;SDS011;61705;46.228;24.812;2023-03-01T01:33:42;69.13;;;25.00;;
51260;SDS011;61705;46.228;24.812;2023-03-01T01:36:10;86.53;;;27.38;;
51260;SDS011;61705;46.228;24.812;2023-03-01T01:38:37;73.28;;;25.50;;
51260;SDS011;61705;46.228;24.812;2023-03-01T01:41:06;70.57;;;24.27;;
51260;SDS011;61705;46.228;24.812;2023-03-01T01:43:34;76.40;;;26.25;;
51260;SDS011;61705;46.228;24.812;2023-03-01T01:49:07;73.68;;;26.45;;
51260;SDS011;61705;46.228;24.812;2023-03-01T01:52:00;76.07;;;25.17;;
51260;SDS011;61705;46.228;24.812;2023-03-01T01:57:18;82.72;;;27.48;;
51260;SDS011;61705;46.228;24.812;2023-03-01T01:59:49;74.35;;;27.08;;
51260;SDS011;61705;46.228;24.812;2023-03-01T02:02:19;79.40;;;27.55;;
51260;SDS011;61705;46.228;24.812;2023-03-01T02:04:49;84.43;;;29.20;;
51260;SDS011;61705;46.228;24.812;2023-03-01T02:07:22;78.70;;;29.67;;
51260;SDS011;61705;46.228;24.812;2023-03-01T02:09:51;69.07;;;27.70;;
51260;SDS011;61705;46.228;24.812;2023-03-01T02:12:20;66.93;;;27.13;;
51260;SDS011;61705;46.228;24.812;2023-03-01T02:14:49;75.75;;;26.85;;
51260;SDS011;61705;46.228;24.812;2023-03-01T02:17:16;70.00;;;29.27;;
51260;SDS011;61705;46.228;24.812;2023-03-01T02:22:44;63.78;;;27.30;;
51260;SDS011;61705;46.228;24.812;2023-03-01T02:27:59;56.72;;;24.50;;
51260;SDS011;61705;46.228;24.812;2023-03-01T02:30:32;55.97;;;23.38;;
51260;SDS011;61705;46.228;24.812;2023-03-01T02:33:02;50.65;;;23.55;;
51260;SDS011;61705;46.228;24.812;2023-03-01T02:35:31;50.85;;;21.65;;
51260;SDS011;61705;46.228;24.812;2023-03-01T02:38:01;48.75;;;21.02;;
51260;SDS011;61705;46.228;24.812;2023-03-01T02:40:29;52.22;;;22.83;;
51260;SDS011;61705;46.228;24.812;2023-03-01T02:43:01;58.83;;;23.77;;
51260;SDS011;61705;46.228;24.812;2023-03-01T02:45:30;63.67;;;26.52;;
51260;SDS011;61705;46.228;24.812;2023-03-01T02:47:57;81.60;;;36.63;;
51260;SDS011;61705;46.228;24.812;2023-03-01T02:55:55;77.60;;;32.35;;
51260;SDS011;61705;46.228;24.812;2023-03-01T02:58:22;92.90;;;37.08;;
51260;SDS011;61705;46.228;24.812;2023-03-01T03:00:52;83.07;;;31.48;;
51260;SDS011;61705;46.228;24.812;2023-03-01T03:03:19;89.38;;;35.38;;
51260;SDS011;61705;46.228;24.812;2023-03-01T03:05:47;84.30;;;36.03;;
51260;SDS011;61705;46.228;24.812;2023-03-01T03:08:21;75.27;;;31.83;;
51260;SDS011;61705;46.228;24.812;2023-03-01T03:10:50;83.03;;;34.70;;
51260;SDS011;61705;46.228;24.812;2023-03-01T03:13:17;85.47;;;36.88;;
51260;SDS011;61705;46.228;24.812;2023-03-01T03:15:45;81.85;;;33.70;;
51260;SDS011;61705;46.228;24.812;2023-03-01T03:18:15;75.00;;;31.98;;
51260;SDS011;61705;46.228;24.812;2023-03-01T03:20:43;83.75;;;36.00;;
51260;SDS011;61705;46.228;24.812;2023-03-01T03:23:11;96.68;;;43.28;;
51260;SDS011;61705;46.228;24.812;2023-03-01T03:25:38;93.10;;;34.13;;
51260;SDS011;61705;46.228;24.812;2023-03-01T03:28:06;74.43;;;31.52;;
51260;SDS011;61705;46.228;24.812;2023-03-01T03:30:37;80.75;;;31.42;;
51260;SDS011;61705;46.228;24.812;2023-03-01T03:33:14;86.53;;;35.08;;
51260;SDS011;61705;46.228;24.812;2023-03-01T03:35:42;78.95;;;33.28;;
51260;SDS011;61705;46.228;24.812;2023-03-01T03:38:13;76.65;;;29.50;;
51260;SDS011;61705;46.228;24.812;2023-03-01T03:40:46;75.82;;;29.67;;
51260;SDS011;61705;46.228;24.812;2023-03-01T03:45:45;78.43;;;33.17;;
51260;SDS011;61705;46.228;24.812;2023-03-01T03:48:13;77.45;;;33.53;;
51260;SDS011;61705;46.228;24.812;2023-03-01T03:50:47;86.95;;;34.03;;
51260;SDS011;61705;46.228;24.812;2023-03-01T03:53:22;92.68;;;36.22;;
51260;SDS011;61705;46.228;24.812;2023-03-01T03:55:50;78.35;;;31.83;;
51260;SDS011;61705;46.228;24.812;2023-03-01T03:58:18;81.70;;;34.90;;
51260;SDS011;61705;46.228;24.812;2023-03-01T04:00:50;85.10;;;33.45;;
51260;SDS011;61705;46.228;24.812;2023-03-01T04:03:24;83.82;;;32.33;;
51260;SDS011;61705;46.228;24.812;2023-03-01T04:05:52;75.22;;;30.90;;
51260;SDS011;61705;46.228;24.812;2023-03-01T04:08:20;72.85;;;30.00;;
51260;SDS011;61705;46.228;24.812;2023-03-01T04:10:49;72.82;;;29.92;;
51260;SDS011;61705;46.228;24.812;2023-03-01T04:13:18;70.65;;;28.42;;
51260;SDS011;61705;46.228;24.812;2023-03-01T04:15:53;74.18;;;30.25;;
51260;SDS011;61705;46.228;24.812;2023-03-01T04:18:23;63.90;;;27.15;;
51260;SDS011;61705;46.228;24.812;2023-03-01T04:21:03;69.15;;;27.08;;
51260;SDS011;61705;46.228;24.812;2023-03-01T04:23:30;60.58;;;25.02;;
51260;SDS011;61705;46.228;24.812;2023-03-01T04:25:57;58.78;;;24.45;;
51260;SDS011;61705;46.228;24.812;2023-03-01T04:28:37;56.15;;;23.70;;
51260;SDS011;61705;46.228;24.812;2023-03-01T04:31:13;56.85;;;23.63;;
51260;SDS011;61705;46.228;24.812;2023-03-01T04:36:13;55.70;;;25.88;;
51260;SDS011;61705;46.228;24.812;2023-03-01T04:38:42;50.85;;;22.17;;
51260;SDS011;61705;46.228;24.812;2023-03-01T04:41:14;58.03;;;21.85;;
51260;SDS011;61705;46.228;24.812;2023-03-01T04:43:44;57.95;;;24.73;;
51260;SDS011;61705;46.228;24.812;2023-03-01T04:46:13;56.13;;;26.38;;
51260;SDS011;61705;46.228;24.812;2023-03-01T04:48:46;70.60;;;27.27;;
51260;SDS011;61705;46.228;24.812;2023-03-01T04:51:13;57.70;;;25.55;;
51260;SDS011;61705;46.228;24.812;2023-03-01T04:53:44;65.57;;;26.70;;
51260;SDS011;61705;46.228;24.812;2023-03-01T04:56:11;67.32;;;29.88;;
51260;SDS011;61705;46.228;24.812;2023-03-01T04:58:44;72.63;;;30.08;;
51260;SDS011;61705;46.228;24.812;2023-03-01T05:01:20;66.88;;;27.88;;
51260;SDS011;61705;46.228;24.812;2023-03-01T05:03:48;67.05;;;28.35;;
51260;SDS011;61705;46.228;24.812;2023-03-01T05:06:19;69.03;;;28.48;;
51260;SDS011;61705;46.228;24.812;2023-03-01T05:08:46;64.50;;;26.00;;
51260;SDS011;61705;46.228;24.812;2023-03-01T05:11:13;62.97;;;25.45;;
51260;SDS011;61705;46.228;24.812;2023-03-01T05:13:40;58.88;;;25.85;;
51260;SDS011;61705;46.228;24.812;2023-03-01T05:16:09;62.63;;;24.05;;
51260;SDS011;61705;46.228;24.812;2023-03-01T05:18:38;70.85;;;24.63;;
51260;SDS011;61705;46.228;24.812;2023-03-01T05:21:06;60.00;;;23.75;;
51260;SDS011;61705;46.228;24.812;2023-03-01T05:23:34;68.47;;;27.55;;
51260;SDS011;61705;46.228;24.812;2023-03-01T05:26:02;70.40;;;28.55;;
51260;SDS011;61705;46.228;24.812;2023-03-01T05:28:38;57.95;;;26.38;;
51260;SDS011;61705;46.228;24.812;2023-03-01T05:31:06;63.40;;;25.63;;
51260;SDS011;61705;46.228;24.812;2023-03-01T05:33:36;53.03;;;23.92;;
51260;SDS011;61705;46.228;24.812;2023-03-01T05:36:04;61.38;;;24.30;;
51260;SDS011;61705;46.228;24.812;2023-03-01T05:38:32;67.63;;;27.45;;
51260;SDS011;61705;46.228;24.812;2023-03-01T05:41:01;59.47;;;24.35;;
51260;SDS011;61705;46.228;24.812;2023-03-01T05:43:31;63.80;;;26.60;;
51260;SDS011;61705;46.228;24.812;2023-03-01T05:46:00;59.03;;;26.02;;
51260;SDS011;61705;46.228;24.812;2023-03-01T05:48:27;58.70;;;26.30;;
51260;SDS011;61705;46.228;24.812;2023-03-01T05:50:54;64.78;;;27.25;;
51260;SDS011;61705;46.228;24.812;2023-03-01T05:53:24;57.72;;;24.42;;
51260;SDS011;61705;46.228;24.812;2023-03-01T05:55:50;62.10;;;25.45;;
51260;SDS011;61705;46.228;24.812;2023-03-01T05:58:20;59.95;;;25.83;;
51260;SDS011;61705;46.228;24.812;2023-03-01T06:00:48;62.53;;;25.38;;
51260;SDS011;61705;46.228;24.812;2023-03-01T06:03:15;62.97;;;27.42;;
51260;SDS011;61705;46.228;24.812;2023-03-01T06:05:43;59.75;;;26.25;;
51260;SDS011;61705;46.228;24.812;2023-03-01T06:08:10;57.47;;;27.25;;
51260;SDS011;61705;46.228;24.812;2023-03-01T06:10:38;55.53;;;24.05;;
51260;SDS011;61705;46.228;24.812;2023-03-01T06:13:05;65.82;;;27.08;;
51260;SDS011;61705;46.228;24.812;2023-03-01T06:15:31;63.08;;;25.77;;
51260;SDS011;61705;46.228;24.812;2023-03-01T06:17:59;63.20;;;27.10;;
51260;SDS011;61705;46.228;24.812;2023-03-01T06:20:28;57.72;;;25.20;;
51260;SDS011;61705;46.228;24.812;2023-03-01T06:22:55;66.18;;;25.45;;
51260;SDS011;61705;46.228;24.812;2023-03-01T06:25:23;66.45;;;27.20;;
51260;SDS011;61705;46.228;24.812;2023-03-01T06:27:52;68.15;;;24.33;;
51260;SDS011;61705;46.228;24.812;2023-03-01T06:30:20;60.70;;;24.17;;
51260;SDS011;61705;46.228;24.812;2023-03-01T06:32:48;62.95;;;22.65;;
51260;SDS011;61705;46.228;24.812;2023-03-01T06:35:15;55.17;;;24.60;;
51260;SDS011;61705;46.228;24.812;2023-03-01T06:37:49;60.47;;;25.98;;
51260;SDS011;61705;46.228;24.812;2023-03-01T06:40:15;64.70;;;26.27;;
51260;SDS011;61705;46.228;24.812;2023-03-01T06:42:43;62.70;;;24.13;;
51260;SDS011;61705;46.228;24.812;2023-03-01T06:45:15;58.33;;;25.88;;
51260;SDS011;61705;46.228;24.812;2023-03-01T06:47:43;53.22;;;23.23;;
51260;SDS011;61705;46.228;24.812;2023-03-01T06:50:10;56.88;;;23.70;;
51260;SDS011;61705;46.228;24.812;2023-03-01T06:52:37;67.10;;;27.38;;
51260;SDS011;61705;46.228;24.812;2023-03-01T06:55:05;62.75;;;27.65;;
51260;SDS011;61705;46.228;24.812;2023-03-01T06:57:32;76.00;;;25.92;;
51260;SDS011;61705;46.228;24.812;2023-03-01T06:59:59;64.00;;;27.20;;
51260;SDS011;61705;46.228;24.812;2023-03-01T07:02:25;64.38;;;26.90;;
51260;SDS011;61705;46.228;24.812;2023-03-01T07:04:52;60.15;;;25.05;;
51260;SDS011;61705;46.228;24.812;2023-03-01T07:07:23;53.47;;;23.63;;
51260;SDS011;61705;46.228;24.812;2023-03-01T07:09:50;54.08;;;25.35;;
51260;SDS011;61705;46.228;24.812;2023-03-01T07:12:19;66.00;;;27.77;;
51260;SDS011;61705;46.228;24.812;2023-03-01T07:14:46;63.10;;;27.52;;
51260;SDS011;61705;46.228;24.812;2023-03-01T07:17:14;63.53;;;25.70;;
51260;SDS011;61705;46.228;24.812;2023-03-01T07:19:41;61.85;;;26.25;;
51260;SDS011;61705;46.228;24.812;2023-03-01T07:22:08;56.63;;;27.00;;
51260;SDS011;61705;46.228;24.812;2023-03-01T07:24:36;71.45;;;32.50;;
51260;SDS011;61705;46.228;24.812;2023-03-01T07:27:06;67.53;;;29.13;;
51260;SDS011;61705;46.228;24.812;2023-03-01T07:29:32;73.13;;;30.42;;
51260;SDS011;61705;46.228;24.812;2023-03-01T07:32:05;84.45;;;36.72;;
51260;SDS011;61705;46.228;24.812;2023-03-01T07:34:32;66.50;;;30.77;;
51260;SDS011;61705;46.228;24.812;2023-03-01T07:37:02;77.97;;;33.38;;
51260;SDS011;61705;46.228;24.812;2023-03-01T07:39:28;65.93;;;31.15;;
51260;SDS011;61705;46.228;24.812;2023-03-01T07:41:56;66.07;;;31.55;;
51260;SDS011;61705;46.228;24.812;2023-03-01T07:44:25;49.58;;;23.30;;
51260;SDS011;61705;46.228;24.812;2023-03-01T07:46:59;43.05;;;21.42;;
51260;SDS011;61705;46.228;24.812;2023-03-01T07:49:26;43.30;;;20.30;;
51260;SDS011;61705;46.228;24.812;2023-03-01T07:51:53;60.42;;;25.52;;
51260;SDS011;61705;46.228;24.812;2023-03-01T07:54:20;47.88;;;22.42;;
51260;SDS011;61705;46.228;24.812;2023-03-01T07:56:47;46.13;;;19.73;;
51260;SDS011;61705;46.228;24.812;2023-03-01T07:59:14;41.70;;;18.30;;
51260;SDS011;61705;46.228;24.812;2023-03-01T08:01:40;43.58;;;16.35;;
51260;SDS011;61705;46.228;24.812;2023-03-01T08:04:08;43.17;;;20.23;;
51260;SDS011;61705;46.228;24.812;2023-03-01T08:06:37;38.20;;;18.48;;
51260;SDS011;61705;46.228;24.812;2023-03-01T08:09:13;53.95;;;20.88;;
51260;SDS011;61705;46.228;24.812;2023-03-01T08:11:39;37.83;;;19.30;;
51260;SDS011;61705;46.228;24.812;2023-03-01T08:14:06;42.03;;;19.38;;
51260;SDS011;61705;46.228;24.812;2023-03-01T08:16:33;47.03;;;20.95;;
51260;SDS011;61705;46.228;24.812;2023-03-01T08:19:05;42.80;;;19.73;;
51260;SDS011;61705;46.228;24.812;2023-03-01T08:21:40;52.28;;;21.42;;
51260;SDS011;61705;46.228;24.812;2023-03-01T08:24:07;65.18;;;22.52;;
51260;SDS011;61705;46.228;24.812;2023-03-01T08:26:34;49.72;;;22.35;;
51260;SDS011;61705;46.228;24.812;2023-03-01T08:29:00;70.10;;;27.73;;
51260;SDS011;61705;46.228;24.812;2023-03-01T08:31:29;36.10;;;17.60;;
51260;SDS011;61705;46.228;24.812;2023-03-01T08:34:05;47.70;;;20.80;;
51260;SDS011;61705;46.228;24.812;2023-03-01T08:36:46;45.85;;;20.73;;
51260;SDS011;61705;46.228;24.812;2023-03-01T08:39:19;45.80;;;18.85;;
51260;SDS011;61705;46.228;24.812;2023-03-01T08:41:52;38.50;;;18.80;;
51260;SDS011;61705;46.228;24.812;2023-03-01T09:04:22;53.63;;;22.30;;
51260;SDS011;61705;46.228;24.812;2023-03-01T09:06:54;49.22;;;21.52;;
51260;SDS011;61705;46.228;24.812;2023-03-01T10:20:15;31.02;;;9.40;;
51260;SDS011;61705;46.228;24.812;2023-03-01T10:22:45;28.95;;;14.15;;
51260;SDS011;61705;46.228;24.812;2023-03-01T10:25:21;27.92;;;11.00;;
51260;SDS011;61705;46.228;24.812;2023-03-01T10:28:16;24.25;;;10.55;;
51260;SDS011;61705;46.228;24.812;2023-03-01T10:30:43;38.08;;;15.15;;
51260;SDS011;61705;46.228;24.812;2023-03-01T10:33:14;25.55;;;9.55;;
51260;SDS011;61705;46.228;24.812;2023-03-01T10:35:51;30.35;;;8.70;;
51260;SDS011;61705;46.228;24.812;2023-03-01T10:38:18;26.05;;;9.93;;
51260;SDS011;61705;46.228;24.812;2023-03-01T23:53:13;36.20;;;15.75;;
51260;SDS011;61705;46.228;24.812;2023-03-01T23:55:46;35.20;;;14.07;;
51260;SDS011;61705;46.228;24.812;2023-03-01T23:58:16;39.58;;;14.25;;
